EHRD/RTM METAR and TAF weather

Enter ICAO airport designator
Station Type Date Time Source
EHRD METAR 2020/07/09 23:55 UTC NOAA

EHRD 092355Z AUTO 23007KT 190V260 9999 SCT009 BKN011 OVC013 17/16 Q1008 NOSIG


Station Type Date Time Source
EHRD Decoded METAR 2020/07/09 23:55 UTC NOAA

Rotterdam Airport Zestienhoven, Netherlands (EHRD) 51-57N 004-27E -4M
Jul 09, 2020 - 07:55 PM EDT / 2020.07.09 2355 UTC
Wind: from the SW (230 degrees) at 8 MPH (7 KT) (direction variable):0
Visibility: greater than 7 mile(s):0
Sky conditions: overcast
Temperature: 62 F (17 C)
Dew Point: 60 F (16 C)
Relative Humidity: 93%
Pressure (altimeter): 29.77 in. Hg (1008 hPa)
ob: EHRD 092355Z AUTO 23007KT 190V260 9999 SCT009 BKN011 OVC013 17/16 Q1008 NOSIG
cycle: 0

Station Type Date Time Source
EHRD TAF 2020/07/09 18:27 UTC NOAA

TAF EHRD 091715Z 0918/1024 24012KT 7000 -DZ BKN012
TEMPO 0918/0922 4000 DZRA BKN008
BECMG 0919/0922 21007KT PROB40
TEMPO 0922/1005 2500 DZ BKN003
BECMG 0922/1001 3500 DZRA BKN006
BECMG 1002/1005 35012KT
BECMG 1005/1008 9999 NSW SCT017 BKN022
BECMG 1010/1013 32010KT
BECMG 1019/1022 VRB03KT

Example: see airport list